Time;durP1;ratioP1;P1;durP2;ratioP2;P2;SDS_P1;SDS_P2;PMS_P1;PMS_P2;Temp;Humidity;BMP_temperature;BMP_pressure;BME280_temperature;BME280_humidity;BME280_pressure;Samples;Min_cycle;Max_cycle;Signal;HPM_P1;HPM_P2
2024/01/03 00:04:46;;;;;;;2.42;2.20;;;;;;;;;;10281331;28;20080;-63
2024/01/03 00:09:44;;;;;;;2.22;2.00;;;;;;;;;;10280631;28;20081;-62
2024/01/03 00:14:43;;;;;;;3.50;2.22;;;;;;;;;;10282847;28;20072;-62
2024/01/03 00:19:43;;;;;;;3.17;2.75;;;;;;;;;;10281642;28;20072;-63
2024/01/03 00:24:45;;;;;;;3.05;2.40;;;;;;;;;;10280860;28;20084;-62
2024/01/03 00:29:53;;;;;;;2.75;2.38;;;;;;;;;;10280620;28;20475;-62
2024/01/03 00:34:54;;;;;;;2.85;2.40;;;;;;;;;;10288316;28;20071;-62
2024/01/03 00:39:54;;;;;;;2.60;2.40;;;;;;;;;;10282031;28;20072;-62
2024/01/03 00:44:53;;;;;;;3.97;2.50;;;;;;;;;;10283420;28;20083;-62
2024/01/03 00:49:51;;;;;;;3.45;2.55;;;;;;;;;;10286328;28;20463;-62
2024/01/03 00:54:51;;;;;;;3.13;2.70;;;;;;;;;;10290115;28;20076;-62
2024/01/03 00:59:49;;;;;;;3.13;2.85;;;;;;;;;;10289611;28;20076;-62
2024/01/03 01:04:48;;;;;;;2.92;2.63;;;;;;;;;;10289732;28;20052;-63
2024/01/03 01:09:46;;;;;;;6.28;2.65;;;;;;;;;;10288770;28;20081;-64
2024/01/03 01:14:46;;;;;;;3.33;2.70;;;;;;;;;;10290099;28;20091;-62
2024/01/03 01:19:45;;;;;;;3.05;2.20;;;;;;;;;;10293877;28;20076;-63
2024/01/03 01:24:43;;;;;;;2.83;1.98;;;;;;;;;;10290724;28;20080;-63
2024/01/03 01:29:41;;;;;;;21.50;3.20;;;;;;;;;;10289939;28;20073;-66
2024/01/03 01:34:41;;;;;;;3.38;2.55;;;;;;;;;;10290062;28;20075;-63
2024/01/03 01:39:40;;;;;;;2.67;2.10;;;;;;;;;;10289806;28;20573;-63
2024/01/03 01:44:38;;;;;;;2.22;2.00;;;;;;;;;;10295881;28;20783;-63
2024/01/03 01:49:39;;;;;;;3.28;2.13;;;;;;;;;;10285699;28;20080;-63
2024/01/03 01:54:39;;;;;;;2.90;2.20;;;;;;;;;;10288100;28;20072;-63
2024/01/03 01:59:37;;;;;;;2.25;2.03;;;;;;;;;;10287368;28;20065;-63
2024/01/03 02:04:36;;;;;;;3.13;1.92;;;;;;;;;;10284324;28;20076;-63
2024/01/03 02:09:34;;;;;;;2.42;2.15;;;;;;;;;;10290570;28;20096;-63
2024/01/03 02:14:34;;;;;;;2.85;2.35;;;;;;;;;;10287514;28;20529;-63
2024/01/03 02:19:32;;;;;;;2.60;2.38;;;;;;;;;;10289661;28;20041;-62
2024/01/03 02:24:32;;;;;;;2.35;2.15;;;;;;;;;;10285333;28;20063;-63
2024/01/03 02:29:30;;;;;;;5.22;2.80;;;;;;;;;;10283706;28;20083;-63
2024/01/03 02:34:28;;;;;;;2.85;2.42;;;;;;;;;;10288619;28;20095;-63
2024/01/03 02:39:27;;;;;;;6.47;2.80;;;;;;;;;;10286841;28;20072;-63
2024/01/03 02:44:27;;;;;;;4.50;2.83;;;;;;;;;;10289070;28;20064;-63
2024/01/03 02:49:26;;;;;;;2.47;2.28;;;;;;;;;;10287813;28;20095;-63
2024/01/03 02:54:24;;;;;;;4.07;2.30;;;;;;;;;;10285396;28;20115;-63
2024/01/03 02:59:22;;;;;;;3.08;2.33;;;;;;;;;;10282967;28;20573;-63
2024/01/03 03:04:22;;;;;;;6.90;6.28;;;;;;;;;;10285603;28;20064;-63
2024/01/03 03:09:20;;;;;;;2.40;2.20;;;;;;;;;;10284958;28;20084;-63
2024/01/03 03:14:18;;;;;;;3.03;2.22;;;;;;;;;;10284418;28;20083;-63
2024/01/03 03:19:17;;;;;;;2.67;2.47;;;;;;;;;;10283215;28;20068;-62
2024/01/03 03:24:16;;;;;;;2.50;2.30;;;;;;;;;;10287122;28;20600;-63
2024/01/03 03:29:15;;;;;;;3.92;2.72;;;;;;;;;;10285504;28;20072;-63
2024/01/03 03:34:16;;;;;;;2.30;2.10;;;;;;;;;;10287323;28;20080;-63
2024/01/03 03:39:14;;;;;;;2.92;2.63;;;;;;;;;;10283728;28;20079;-63
2024/01/03 03:44:14;;;;;;;3.13;2.20;;;;;;;;;;10286679;28;20642;-63
2024/01/03 03:49:12;;;;;;;1.88;1.73;;;;;;;;;;10280814;28;20083;-62
2024/01/03 03:54:10;;;;;;;2.67;2.47;;;;;;;;;;10287127;28;20069;-62
2024/01/03 03:59:08;;;;;;;3.35;2.63;;;;;;;;;;10281812;28;20060;-62
2024/01/03 04:04:08;;;;;;;4.30;2.28;;;;;;;;;;10282387;28;20064;-61
2024/01/03 04:09:06;;;;;;;2.42;2.22;;;;;;;;;;10284342;28;20068;-62
2024/01/03 04:14:04;;;;;;;2.53;2.22;;;;;;;;;;10284156;28;20072;-62
2024/01/03 04:19:03;;;;;;;3.20;2.50;;;;;;;;;;10283872;28;20083;-64
2024/01/03 04:24:02;;;;;;;3.45;2.67;;;;;;;;;;10287474;28;20095;-63
2024/01/03 04:29:01;;;;;;;4.25;3.05;;;;;;;;;;10291680;28;20072;-61
2024/01/03 04:33:59;;;;;;;4.18;3.42;;;;;;;;;;10292478;28;20084;-62
2024/01/03 04:38:57;;;;;;;5.00;3.25;;;;;;;;;;10290243;28;20068;-62
2024/01/03 04:43:57;;;;;;;3.50;2.88;;;;;;;;;;10293181;28;20459;-62
2024/01/03 04:48:55;;;;;;;2.78;2.58;;;;;;;;;;10292373;28;20083;-62
2024/01/03 04:53:54;;;;;;;2.50;2.17;;;;;;;;;;10285258;28;20080;-64
2024/01/03 04:58:52;;;;;;;4.15;3.08;;;;;;;;;;10286621;28;20073;-62
2024/01/03 05:03:52;;;;;;;3.35;2.83;;;;;;;;;;10284650;28;20083;-61
2024/01/03 05:08:50;;;;;;;5.05;2.65;;;;;;;;;;10281399;28;20065;-62
2024/01/03 05:13:48;;;;;;;2.97;2.63;;;;;;;;;;10291865;28;20072;-62
2024/01/03 05:18:47;;;;;;;2.60;2.40;;;;;;;;;;10289940;28;20076;-61
2024/01/03 05:23:46;;;;;;;4.13;3.40;;;;;;;;;;10287193;28;20072;-62
2024/01/03 05:28:45;;;;;;;3.33;3.03;;;;;;;;;;10286760;28;20064;-63
2024/01/03 05:33:43;;;;;;;2.92;2.72;;;;;;;;;;10289871;28;20076;-63
2024/01/03 05:38:41;;;;;;;4.15;3.20;;;;;;;;;;10286359;28;20076;-63
2024/01/03 05:43:41;;;;;;;2.53;2.35;;;;;;;;;;10290677;28;20060;-62
2024/01/03 05:48:39;;;;;;;4.75;2.85;;;;;;;;;;10286577;28;20403;-62
2024/01/03 05:53:46;;;;;;;2.83;2.58;;;;;;;;;;10284378;28;20083;-63
2024/01/03 05:58:45;;;;;;;;;;;;;;;;;;10284411;28;20064;-63
2024/01/03 06:03:44;;;;;;;2.45;2.25;;;;;;;;;;10284984;28;19960;-63
2024/01/03 06:08:42;;;;;;;3.22;2.47;;;;;;;;;;10281405;28;20498;-63
2024/01/03 06:13:41;;;;;;;2.55;2.35;;;;;;;;;;10286372;28;20071;-63
2024/01/03 06:18:39;;;;;;;3.05;2.42;;;;;;;;;;10289467;28;20524;-63
2024/01/03 06:23:39;;;;;;;3.72;2.92;;;;;;;;;;10286529;28;20068;-63
2024/01/03 06:28:38;;;;;;;6.40;3.35;;;;;;;;;;10286604;28;20064;-63
2024/01/03 06:33:36;;;;;;;4.65;3.05;;;;;;;;;;10288402;28;20503;-63
2024/01/03 06:38:34;;;;;;;6.07;2.83;;;;;;;;;;10286479;28;20083;-63
2024/01/03 06:43:34;;;;;;;3.22;2.60;;;;;;;;;;10287357;28;20076;-63
2024/01/03 06:48:32;;;;;;;6.97;2.47;;;;;;;;;;10284382;28;20077;-65
2024/01/03 06:53:31;;;;;;;3.35;3.05;;;;;;;;;;10287359;28;20075;-62
2024/01/03 06:58:29;;;;;;;5.68;4.20;;;;;;;;;;10286484;28;20583;-62
2024/01/03 07:03:29;;;;;;;3.47;3.00;;;;;;;;;;10285317;28;20079;-63
2024/01/03 07:08:27;;;;;;;2.63;1.90;;;;;;;;;;10284481;28;20064;-63
2024/01/03 07:13:25;;;;;;;2.95;2.72;;;;;;;;;;10283166;28;20068;-63
2024/01/03 07:18:24;;;;;;;2.42;2.20;;;;;;;;;;10286972;28;20064;-64
2024/01/03 07:23:24;;;;;;;2.78;2.47;;;;;;;;;;10286473;28;20073;-62
2024/01/03 07:28:22;;;;;;;3.97;2.63;;;;;;;;;;10281413;28;20483;-63
2024/01/03 07:33:20;;;;;;;2.78;2.45;;;;;;;;;;10281439;28;20607;-63
2024/01/03 07:38:19;;;;;;;4.82;3.42;;;;;;;;;;10278833;28;20072;-63
2024/01/03 07:43:18;;;;;;;4.70;3.55;;;;;;;;;;10284060;28;20537;-63
2024/01/03 07:48:17;;;;;;;5.18;4.47;;;;;;;;;;10284317;28;20077;-63
2024/01/03 07:53:15;;;;;;;7.40;5.45;;;;;;;;;;10283284;28;20077;-63
2024/01/03 07:58:14;;;;;;;7.85;5.63;;;;;;;;;;10280147;28;20095;-63
2024/01/03 08:03:13;;;;;;;16.45;12.77;;;;;;;;;;10282865;28;20075;-63
2024/01/03 08:08:12;;;;;;;16.92;9.85;;;;;;;;;;10281437;28;20079;-63
2024/01/03 08:13:11;;;;;;;5.50;4.35;;;;;;;;;;10284287;28;20072;-63
2024/01/03 08:18:09;;;;;;;6.03;4.50;;;;;;;;;;10281078;28;20075;-63
2024/01/03 08:23:10;;;;;;;4.53;3.17;;;;;;;;;;10285655;28;20067;-63
2024/01/03 08:28:08;;;;;;;5.00;3.30;;;;;;;;;;10279908;28;20569;-62
2024/01/03 08:33:07;;;;;;;4.90;4.40;;;;;;;;;;10291926;28;20080;-63
2024/01/03 08:38:05;;;;;;;6.35;5.50;;;;;;;;;;10285168;28;20519;-63
2024/01/03 08:43:05;;;;;;;4.93;2.70;;;;;;;;;;10278844;28;20071;-63
2024/01/03 08:48:05;;;;;;;4.30;3.13;;;;;;;;;;10284548;28;20068;-64
2024/01/03 08:53:04;;;;;;;10.52;7.00;;;;;;;;;;10280348;28;20462;-63
2024/01/03 08:58:02;;;;;;;5.95;5.45;;;;;;;;;;10276851;28;20553;-63
2024/01/03 09:03:02;;;;;;;5.75;5.20;;;;;;;;;;10274763;28;20072;-64
2024/01/03 09:08:00;;;;;;;9.68;5.47;;;;;;;;;;10281907;28;20174;-63
2024/01/03 09:13:02;;;;;;;21.35;14.45;;;;;;;;;;10282589;28;20064;-64
2024/01/03 09:18:01;;;;;;;4.60;4.05;;;;;;;;;;10287572;28;20064;-64
2024/01/03 09:23:00;;;;;;;5.50;5.00;;;;;;;;;;10288846;28;20073;-62
2024/01/03 09:27:58;;;;;;;4.50;4.00;;;;;;;;;;10290071;28;20510;-62
2024/01/03 09:33:02;;;;;;;26.15;10.13;;;;;;;;;;10291134;28;20091;-63
2024/01/03 09:38:00;;;;;;;13.40;6.65;;;;;;;;;;10287078;28;20076;-64
2024/01/03 09:42:59;;;;;;;9.25;5.65;;;;;;;;;;10289983;28;20076;-64
2024/01/03 09:47:58;;;;;;;6.82;6.13;;;;;;;;;;10291254;28;20072;-64
2024/01/03 09:52:58;;;;;;;9.38;8.40;;;;;;;;;;10291153;28;20076;-63
2024/01/03 09:57:56;;;;;;;10.57;9.48;;;;;;;;;;10290039;28;20071;-64
2024/01/03 10:02:54;;;;;;;12.18;10.82;;;;;;;;;;10289194;28;20063;-63
2024/01/03 10:07:53;;;;;;;13.73;9.60;;;;;;;;;;10289008;28;20073;-63
2024/01/03 10:12:52;;;;;;;11.27;7.97;;;;;;;;;;10289329;28;20072;-63
2024/01/03 10:18:04;;;;;;;21.90;16.70;;;;;;;;;;10289667;28;20068;-63
2024/01/03 10:23:06;;;;;;;17.30;14.23;;;;;;;;;;10283636;28;20468;-64
2024/01/03 10:28:07;;;;;;;7.85;6.95;;;;;;;;;;10285299;28;20466;-63
2024/01/03 10:33:06;;;;;;;7.10;6.30;;;;;;;;;;10283918;28;20072;-64
2024/01/03 10:38:05;;;;;;;11.35;8.18;;;;;;;;;;10286099;28;20072;-63
2024/01/03 10:43:04;;;;;;;11.40;8.05;;;;;;;;;;10287287;28;20080;-63
2024/01/03 10:48:04;;;;;;;12.27;9.20;;;;;;;;;;10288306;28;20068;-62
2024/01/03 10:53:06;;;;;;;10.57;7.80;;;;;;;;;;10289937;28;20559;-62
2024/01/03 10:58:09;;;;;;;10.02;8.82;;;;;;;;;;10286879;28;20072;-62
2024/01/03 11:03:16;;;;;;;11.25;7.40;;;;;;;;;;10287528;28;20067;-63
2024/01/03 11:08:17;;;;;;;9.80;6.72;;;;;;;;;;10284289;28;20064;-64
2024/01/03 11:13:28;;;;;;;12.13;10.73;;;;;;;;;;10287986;28;20544;-63
2024/01/03 11:18:53;;;;;;;10.32;8.23;;;;;;;;;;10286870;28;20073;-63
2024/01/03 11:23:53;;;;;;;9.43;6.80;;;;;;;;;;10267628;28;20103;-62
2024/01/03 11:28:52;;;;;;;8.32;7.53;;;;;;;;;;10287669;28;20079;-63
2024/01/03 11:33:51;;;;;;;7.60;5.93;;;;;;;;;;10284527;28;20337;-65
2024/01/03 11:38:49;;;;;;;6.18;5.47;;;;;;;;;;10286951;28;20719;-63
2024/01/03 11:43:49;;;;;;;9.23;5.82;;;;;;;;;;10286530;28;20080;-63
2024/01/03 11:48:47;;;;;;;10.00;6.50;;;;;;;;;;10288614;28;20061;-63
2024/01/03 11:53:45;;;;;;;5.57;4.90;;;;;;;;;;10288540;28;20493;-62
2024/01/03 11:58:55;;;;;;;9.63;6.00;;;;;;;;;;10287412;28;20069;-63
2024/01/03 12:04:07;;;;;;;10.88;7.47;;;;;;;;;;10284852;28;20071;-62
2024/01/03 12:09:06;;;;;;;10.73;6.43;;;;;;;;;;10282652;28;20096;-63
2024/01/03 12:14:06;;;;;;;17.88;13.73;;;;;;;;;;10286713;28;20072;-63
2024/01/03 12:19:06;;;;;;;11.07;9.95;;;;;;;;;;10285344;28;20524;-62
2024/01/03 12:24:05;;;;;;;15.98;8.95;;;;;;;;;;10286570;28;20065;-63
2024/01/03 12:29:04;;;;;;;8.32;5.18;;;;;;;;;;10286010;28;20081;-64
2024/01/03 12:34:08;;;;;;;6.40;5.80;;;;;;;;;;10285149;28;20084;-64
2024/01/03 12:39:07;;;;;;;8.43;6.72;;;;;;;;;;10286005;28;20081;-63
2024/01/03 12:44:05;;;;;;;9.20;7.80;;;;;;;;;;10287798;28;20076;-64
2024/01/03 12:49:04;;;;;;;8.88;6.53;;;;;;;;;;10292943;28;20072;-64
2024/01/03 12:54:03;;;;;;;15.40;10.45;;;;;;;;;;10288451;28;20071;-64
2024/01/03 12:59:02;;;;;;;8.82;7.93;;;;;;;;;;10291562;28;20064;-62
2024/01/03 13:04:00;;;;;;;4.55;4.07;;;;;;;;;;10292888;28;20068;-62
2024/01/03 13:09:00;;;;;;;7.13;5.50;;;;;;;;;;10292953;28;20068;-63
2024/01/03 13:13:59;;;;;;;13.05;7.95;;;;;;;;;;10291355;28;20080;-64
2024/01/03 13:18:57;;;;;;;9.07;6.68;;;;;;;;;;10291431;28;20494;-63
2024/01/03 13:23:56;;;;;;;6.50;5.82;;;;;;;;;;10291046;28;20072;-63
2024/01/03 13:28:54;;;;;;;6.82;5.53;;;;;;;;;;10290593;28;20459;-64
2024/01/03 13:33:54;;;;;;;13.40;10.90;;;;;;;;;;10291782;28;20088;-63
2024/01/03 13:38:52;;;;;;;9.93;8.15;;;;;;;;;;10292667;28;20533;-63
2024/01/03 13:43:52;;;;;;;9.55;7.22;;;;;;;;;;10291837;28;20075;-63
2024/01/03 13:48:51;;;;;;;7.47;6.10;;;;;;;;;;10285978;28;20072;-64
2024/01/03 13:53:53;;;;;;;7.47;6.18;;;;;;;;;;10291584;28;20076;-63
2024/01/03 13:58:51;;;;;;;8.20;5.38;;;;;;;;;;10289790;28;20084;-63
2024/01/03 14:03:49;;;;;;;5.63;5.03;;;;;;;;;;10289528;28;20041;-63
2024/01/03 14:08:48;;;;;;;7.50;6.75;;;;;;;;;;10289327;28;20075;-64
2024/01/03 14:13:47;;;;;;;7.43;4.95;;;;;;;;;;10286372;28;20076;-64
2024/01/03 14:18:46;;;;;;;6.32;5.63;;;;;;;;;;10288672;28;20080;-64
2024/01/03 14:23:44;;;;;;;9.15;7.30;;;;;;;;;;10289837;28;20098;-62
2024/01/03 14:28:43;;;;;;;11.68;9.98;;;;;;;;;;10290102;28;20080;-63
2024/01/03 14:33:42;;;;;;;20.02;17.48;;;;;;;;;;10287033;28;20964;-63
2024/01/03 14:38:41;;;;;;;13.20;11.65;;;;;;;;;;10283375;28;20068;-62
2024/01/03 14:43:44;;;;;;;11.93;10.80;;;;;;;;;;10286047;28;20527;-62
2024/01/03 14:48:43;;;;;;;8.48;4.85;;;;;;;;;;10287699;28;20081;-64
2024/01/03 14:53:42;;;;;;;8.38;7.22;;;;;;;;;;10284156;28;20497;-63
2024/01/03 14:58:42;;;;;;;7.93;5.18;;;;;;;;;;10286674;28;20053;-63
2024/01/03 15:03:40;;;;;;;9.73;8.45;;;;;;;;;;10284282;28;20528;-63
2024/01/03 15:08:39;;;;;;;12.10;10.30;;;;;;;;;;10287373;28;20478;-63
2024/01/03 15:13:39;;;;;;;13.25;9.60;;;;;;;;;;10287445;28;20076;-64
2024/01/03 15:18:38;;;;;;;7.38;6.68;;;;;;;;;;10286597;28;20068;-63
2024/01/03 15:23:36;;;;;;;10.07;8.93;;;;;;;;;;10286060;28;20060;-63
2024/01/03 15:28:37;;;;;;;8.85;7.50;;;;;;;;;;10283659;28;20498;-64
2024/01/03 15:33:35;;;;;;;8.85;6.82;;;;;;;;;;10284482;28;20091;-64
2024/01/03 15:38:34;;;;;;;7.90;5.28;;;;;;;;;;10286682;28;20068;-64
2024/01/03 15:43:32;;;;;;;7.22;6.43;;;;;;;;;;10288007;28;20084;-62
2024/01/03 15:48:32;;;;;;;7.68;6.88;;;;;;;;;;10285354;28;20080;-62
2024/01/03 15:53:31;;;;;;;7.47;6.68;;;;;;;;;;10283563;28;20099;-64
2024/01/03 15:58:30;;;;;;;7.32;6.10;;;;;;;;;;10279688;28;20065;-64
2024/01/03 16:03:28;;;;;;;7.07;5.93;;;;;;;;;;10278477;28;20477;-65
2024/01/03 16:08:27;;;;;;;6.60;5.47;;;;;;;;;;10279450;28;20057;-63
2024/01/03 16:13:26;;;;;;;9.02;5.88;;;;;;;;;;10278752;28;20076;-63
2024/01/03 16:18:24;;;;;;;7.20;5.93;;;;;;;;;;10285940;28;20091;-66
2024/01/03 16:23:23;;;;;;;7.38;6.68;;;;;;;;;;10295067;28;20068;-63
2024/01/03 16:28:22;;;;;;;7.43;6.72;;;;;;;;;;10294538;28;20068;-63
2024/01/03 16:33:20;;;;;;;8.77;6.38;;;;;;;;;;10295995;28;20076;-63
2024/01/03 16:38:19;;;;;;;10.88;8.25;;;;;;;;;;10293856;28;20079;-64
2024/01/03 16:43:18;;;;;;;14.15;12.18;;;;;;;;;;10289877;28;20076;-62
2024/01/03 16:48:17;;;;;;;7.80;6.90;;;;;;;;;;10285041;28;20068;-62
2024/01/03 16:53:16;;;;;;;5.47;4.90;;;;;;;;;;10293623;28;20068;-63
2024/01/03 16:58:14;;;;;;;4.50;4.07;;;;;;;;;;10292542;28;20072;-62
2024/01/03 17:03:12;;;;;;;4.72;4.22;;;;;;;;;;10289423;28;20064;-62
2024/01/03 17:08:13;;;;;;;6.22;4.32;;;;;;;;;;10288682;28;20076;-62
2024/01/03 17:13:11;;;;;;;6.75;4.50;;;;;;;;;;10291568;28;20080;-63
2024/01/03 17:18:09;;;;;;;15.02;11.95;;;;;;;;;;10289351;28;20087;-62
2024/01/03 17:23:08;;;;;;;6.30;5.57;;;;;;;;;;10285248;28;20518;-63
2024/01/03 17:28:10;;;;;;;9.48;7.32;;;;;;;;;;10280889;28;20481;-63
2024/01/03 17:33:09;;;;;;;5.70;5.00;;;;;;;;;;10282444;28;20080;-62
2024/01/03 17:38:08;;;;;;;4.80;4.40;;;;;;;;;;10291650;28;20083;-63
2024/01/03 17:43:06;;;;;;;6.97;6.03;;;;;;;;;;10290896;28;20092;-64
2024/01/03 17:48:06;;;;;;;6.85;5.05;;;;;;;;;;10292012;28;20077;-64
2024/01/03 17:53:05;;;;;;;5.10;4.35;;;;;;;;;;10289460;28;20068;-63
2024/01/03 17:58:03;;;;;;;17.73;12.77;;;;;;;;;;10285424;28;20096;-64
2024/01/03 18:03:01;;;;;;;9.23;8.32;;;;;;;;;;10288276;28;20499;-64
2024/01/03 18:08:01;;;;;;;6.88;5.60;;;;;;;;;;10282063;28;20071;-64
2024/01/03 18:12:59;;;;;;;5.43;4.20;;;;;;;;;;10287029;28;20700;-63
2024/01/03 18:17:58;;;;;;;9.27;6.07;;;;;;;;;;10283117;28;20084;-63
2024/01/03 18:22:58;;;;;;;13.10;7.97;;;;;;;;;;10288480;28;20072;-63
2024/01/03 18:27:58;;;;;;;9.00;6.18;;;;;;;;;;10286782;28;20065;-63
2024/01/03 18:32:56;;;;;;;7.93;5.50;;;;;;;;;;10284352;28;20513;-65
2024/01/03 18:37:56;;;;;;;7.43;6.50;;;;;;;;;;10282297;28;20076;-64
2024/01/03 18:42:54;;;;;;;6.35;5.20;;;;;;;;;;10289400;28;20072;-63
2024/01/03 18:47:54;;;;;;;7.85;6.03;;;;;;;;;;10280509;28;20080;-63
2024/01/03 18:52:53;;;;;;;14.07;8.63;;;;;;;;;;10285489;28;20080;-64
2024/01/03 18:57:52;;;;;;;8.48;6.65;;;;;;;;;;10288309;28;20076;-63
2024/01/03 19:02:50;;;;;;;5.50;5.00;;;;;;;;;;10289337;28;20067;-64
2024/01/03 19:07:50;;;;;;;6.80;5.80;;;;;;;;;;10287699;28;20079;-63
2024/01/03 19:12:48;;;;;;;6.10;5.35;;;;;;;;;;10291332;28;20075;-64
2024/01/03 19:17:46;;;;;;;11.82;6.97;;;;;;;;;;10300126;28;20067;-63
2024/01/03 19:22:44;;;;;;;7.43;6.18;;;;;;;;;;10290369;28;20067;-63
2024/01/03 19:27:46;;;;;;;12.20;8.32;;;;;;;;;;10282899;28;20064;-62
2024/01/03 19:32:44;;;;;;;9.15;7.28;;;;;;;;;;10287140;28;20076;-63
2024/01/03 19:37:43;;;;;;;6.00;5.40;;;;;;;;;;10286184;28;20077;-63
2024/01/03 19:42:41;;;;;;;5.65;3.92;;;;;;;;;;10282501;28;20060;-64
2024/01/03 19:47:42;;;;;;;6.78;5.07;;;;;;;;;;10281374;28;20080;-64
2024/01/03 19:52:40;;;;;;;4.88;4.30;;;;;;;;;;10284031;28;20063;-64
2024/01/03 19:57:40;;;;;;;10.13;5.15;;;;;;;;;;10281271;28;20065;-64
2024/01/03 20:02:39;;;;;;;8.15;6.55;;;;;;;;;;10278044;28;20072;-61
2024/01/03 20:07:39;;;;;;;19.98;10.55;;;;;;;;;;10278919;28;20075;-64
2024/01/03 20:12:38;;;;;;;4.72;3.72;;;;;;;;;;10276493;28;20087;-65
2024/01/03 20:17:36;;;;;;;6.05;4.53;;;;;;;;;;10280637;28;20069;-64
2024/01/03 20:22:34;;;;;;;10.38;7.07;;;;;;;;;;10283408;28;20506;-64
2024/01/03 20:27:34;;;;;;;7.50;5.07;;;;;;;;;;10281636;28;20064;-63
2024/01/03 20:32:32;;;;;;;6.70;4.85;;;;;;;;;;10284084;28;20477;-64
2024/01/03 20:37:32;;;;;;;4.72;3.83;;;;;;;;;;10286953;28;20063;-64
2024/01/03 20:42:31;;;;;;;6.13;4.50;;;;;;;;;;10288400;28;20061;-64
2024/01/03 20:47:30;;;;;;;8.15;6.18;;;;;;;;;;10285969;28;20064;-64
2024/01/03 20:52:29;;;;;;;5.63;4.22;;;;;;;;;;10300851;28;20076;-63
2024/01/03 20:57:28;;;;;;;4.80;4.03;;;;;;;;;;10287389;28;20076;-63
2024/01/03 21:02:26;;;;;;;8.65;6.40;;;;;;;;;;10282490;28;20068;-64
2024/01/03 21:07:26;;;;;;;10.48;4.57;;;;;;;;;;10286010;28;20123;-64
2024/01/03 21:12:24;;;;;;;4.70;3.42;;;;;;;;;;10296970;28;20071;-63
2024/01/03 21:17:22;;;;;;;6.05;4.35;;;;;;;;;;10297541;28;20079;-63
2024/01/03 21:22:21;;;;;;;5.35;2.58;;;;;;;;;;10291513;28;20076;-64
2024/01/03 21:27:20;;;;;;;5.43;2.75;;;;;;;;;;10292117;28;20569;-63
2024/01/03 21:32:38;;;;;;;3.08;2.80;;;;;;;;;;10291836;28;20076;-63
2024/01/03 21:37:37;;;;;;;4.38;2.88;;;;;;;;;;10289254;28;20565;-63
2024/01/03 21:42:37;;;;;;;7.05;4.03;;;;;;;;;;10289028;28;20060;-63
2024/01/03 21:47:38;;;;;;;3.72;3.28;;;;;;;;;;10291346;28;20103;-64
2024/01/03 21:52:40;;;;;;;3.78;2.97;;;;;;;;;;10289369;28;20080;-63
2024/01/03 21:57:39;;;;;;;13.38;4.57;;;;;;;;;;10288503;28;20086;-63
2024/01/03 22:02:39;;;;;;;7.60;3.85;;;;;;;;;;10287505;28;20539;-64
2024/01/03 22:07:37;;;;;;;5.53;4.03;;;;;;;;;;10290911;28;20471;-65
2024/01/03 22:12:35;;;;;;;5.88;3.35;;;;;;;;;;10287926;28;20072;-64
2024/01/03 22:17:35;;;;;;;8.38;4.85;;;;;;;;;;10279251;28;20068;-64
2024/01/03 22:22:34;;;;;;;3.38;2.97;;;;;;;;;;10278070;28;20076;-64
2024/01/03 22:27:32;;;;;;;4.22;3.10;;;;;;;;;;10283165;28;20832;-64
2024/01/03 22:32:30;;;;;;;2.75;2.38;;;;;;;;;;10282712;28;20092;-65
2024/01/03 22:37:30;;;;;;;5.55;2.60;;;;;;;;;;10289997;28;20095;-65
2024/01/03 22:42:32;;;;;;;4.40;3.40;;;;;;;;;;10282787;28;20072;-64
2024/01/03 22:47:31;;;;;;;2.80;2.58;;;;;;;;;;10287795;28;20646;-63
2024/01/03 22:52:31;;;;;;;4.80;3.88;;;;;;;;;;10288552;28;20073;-64
2024/01/03 22:57:29;;;;;;;4.03;3.60;;;;;;;;;;10288811;28;20060;-63
2024/01/03 23:02:28;;;;;;;5.47;3.38;;;;;;;;;;10283158;28;20079;-64
2024/01/03 23:07:26;;;;;;;3.88;2.80;;;;;;;;;;10286738;28;20481;-65
2024/01/03 23:12:26;;;;;;;3.65;3.17;;;;;;;;;;10286296;28;20076;-64
2024/01/03 23:17:24;;;;;;;5.57;4.25;;;;;;;;;;10286824;28;20075;-63
2024/01/03 23:22:22;;;;;;;7.60;4.00;;;;;;;;;;10284723;28;20115;-63
2024/01/03 23:27:20;;;;;;;5.22;4.30;;;;;;;;;;10287881;28;20075;-63
2024/01/03 23:32:20;;;;;;;5.13;3.38;;;;;;;;;;10287067;28;20081;-63
2024/01/03 23:37:18;;;;;;;4.40;4.00;;;;;;;;;;10285687;28;20106;-63
2024/01/03 23:42:17;;;;;;;3.35;3.05;;;;;;;;;;10283840;28;20075;-63
2024/01/03 23:47:15;;;;;;;4.85;4.00;;;;;;;;;;10284166;28;20076;-64
2024/01/03 23:52:14;;;;;;;2.22;2.08;;;;;;;;;;10279498;28;20073;-62
2024/01/03 23:57:13;;;;;;;3.78;2.25;;;;;;;;;;10282543;28;20072;-62
